Time;durP1;ratioP1;P1;durP2;ratioP2;P2;SDS_P1;SDS_P2;PMS_P1;PMS_P2;Temp;Humidity;BMP_temperature;BMP_pressure;BME280_temperature;BME280_humidity;BME280_pressure;Samples;Min_cycle;Max_cycle;Signal;HPM_P1;HPM_P2
2023/05/05 00:01:48;;;;;;;9.90;5.97;;;;;;;11.07;100.00;95533.56;5011354;28;20266;-69
2023/05/05 00:04:13;;;;;;;11.40;6.10;;;;;;;10.92;100.00;95525.75;5015727;28;20226;-69
2023/05/05 00:06:39;;;;;;;10.47;6.20;;;;;;;10.95;100.00;95527.19;5003380;28;20227;-69
2023/05/05 00:09:05;;;;;;;11.23;6.57;;;;;;;10.67;100.00;95527.94;5007013;28;20234;-70
2023/05/05 00:11:31;;;;;;;11.77;6.50;;;;;;;10.51;100.00;95522.09;4986150;28;20273;-68
2023/05/05 00:13:56;;;;;;;10.63;6.60;;;;;;;10.63;100.00;95529.28;4987178;28;20262;-69
2023/05/05 00:16:22;;;;;;;10.93;6.70;;;;;;;10.54;100.00;95527.78;5007927;28;20238;-69
2023/05/05 00:18:47;;;;;;;11.03;7.13;;;;;;;10.58;100.00;95523.00;5019872;28;20237;-70
2023/05/05 00:21:13;;;;;;;12.90;6.80;;;;;;;10.53;100.00;95512.28;5006225;28;20241;-69
2023/05/05 00:23:38;;;;;;;12.27;6.73;;;;;;;10.41;100.00;95514.53;4999827;28;20229;-69
2023/05/05 00:26:04;;;;;;;9.87;6.80;;;;;;;10.47;100.00;95524.28;4996508;28;20241;-69
2023/05/05 00:28:29;;;;;;;10.87;7.03;;;;;;;10.40;100.00;95515.53;5022505;28;20955;-70
2023/05/05 00:30:55;;;;;;;12.33;7.30;;;;;;;10.31;100.00;95528.91;5015490;28;20238;-70
2023/05/05 00:33:20;;;;;;;11.07;6.53;;;;;;;10.37;100.00;95523.75;4999206;28;20227;-70
2023/05/05 00:35:46;;;;;;;13.50;7.17;;;;;;;10.38;100.00;95520.16;4999277;28;20237;-69
2023/05/05 00:38:11;;;;;;;12.10;7.33;;;;;;;10.39;100.00;95518.34;5003859;28;20984;-69
2023/05/05 00:40:37;;;;;;;11.43;7.07;;;;;;;10.52;100.00;95521.91;4987847;28;20235;-70
2023/05/05 00:43:02;;;;;;;15.03;7.10;;;;;;;10.50;100.00;95521.28;5015765;28;20230;-69
2023/05/05 00:45:28;;;;;;;13.70;7.20;;;;;;;10.37;100.00;95522.94;5001357;28;20621;-69
2023/05/05 00:47:58;;;;;;;11.60;6.63;;;;;;;10.35;100.00;95522.31;4997524;28;20249;-69
2023/05/05 00:50:25;;;;;;;13.63;6.93;;;;;;;10.27;100.00;95528.44;4997389;28;20292;-69
2023/05/05 00:52:53;;;;;;;11.40;6.80;;;;;;;10.25;100.00;95527.81;5004056;28;20234;-70
2023/05/05 00:55:18;;;;;;;11.43;6.60;;;;;;;10.17;100.00;95522.72;5002388;28;20253;-70
2023/05/05 00:57:44;;;;;;;13.10;6.87;;;;;;;9.99;100.00;95527.44;4981072;28;20238;-70
2023/05/05 01:00:10;;;;;;;12.03;6.90;;;;;;;9.94;100.00;95527.19;4998701;28;20234;-69
2023/05/05 01:02:35;;;;;;;11.63;6.70;;;;;;;9.99;100.00;95522.22;5002409;28;20319;-69
2023/05/05 01:05:02;;;;;;;12.40;7.53;;;;;;;9.95;100.00;95524.41;5005514;28;21017;-70
2023/05/05 01:07:42;;;;;;;13.03;7.00;;;;;;;9.86;100.00;95525.44;5005946;28;20292;-71
2023/05/05 01:10:30;;;;;;;11.27;6.80;;;;;;;9.94;100.00;95527.19;5007634;28;20261;-70
2023/05/05 01:13:07;;;;;;;10.70;6.80;;;;;;;9.94;100.00;95524.56;5013386;28;20235;-70
2023/05/05 01:15:38;;;;;;;10.50;6.67;;;;;;;9.99;100.00;95522.22;4999683;28;20234;-71
2023/05/05 01:18:31;;;;;;;12.70;7.30;;;;;;;9.69;100.00;95520.59;5007660;28;20254;-70
2023/05/05 01:21:05;;;;;;;11.57;7.07;;;;;;;9.85;100.00;95512.56;5001244;28;20246;-70
2023/05/05 01:24:09;;;;;;;11.90;7.10;;;;;;;9.72;100.00;95512.41;5013491;28;20314;-69
2023/05/05 01:26:56;;;;;;;14.67;7.40;;;;;;;9.67;100.00;95512.13;5016329;28;20238;-70
2023/05/05 01:29:31;;;;;;;13.13;7.77;;;;;;;9.52;100.00;95513.91;5022460;28;20242;-70
2023/05/05 01:32:09;;;;;;;13.03;8.00;;;;;;;9.71;100.00;95511.59;4996164;28;20685;-70
2023/05/05 01:34:52;;;;;;;14.00;7.97;;;;;;;9.72;100.00;95510.56;4983652;28;20242;-69
2023/05/05 01:37:21;;;;;;;13.97;8.03;;;;;;;9.62;100.00;95507.44;5006010;28;20273;-70
2023/05/05 01:39:49;;;;;;;16.60;8.03;;;;;;;9.89;100.00;95509.41;5006593;28;20230;-70
2023/05/05 01:42:15;;;;;;;15.67;8.13;;;;;;;10.03;100.00;95515.66;5003899;28;20321;-70
2023/05/05 01:44:41;;;;;;;13.73;8.23;;;;;;;9.94;100.00;95506.25;5005463;28;20231;-70
2023/05/05 01:47:06;;;;;;;15.87;8.10;;;;;;;9.83;100.00;95502.31;5000041;28;20230;-70
2023/05/05 01:49:32;;;;;;;12.93;7.93;;;;;;;9.86;100.00;95501.13;5001732;28;20230;-71
2023/05/05 01:51:57;;;;;;;14.37;8.10;;;;;;;10.01;100.00;95488.84;5002186;28;20234;-70
2023/05/05 01:54:23;;;;;;;15.00;7.97;;;;;;;9.93;100.00;95496.81;5003311;28;20241;-70
2023/05/05 01:56:48;;;;;;;14.33;7.93;;;;;;;9.92;100.00;95493.38;4982579;28;20261;-70
2023/05/05 01:59:14;;;;;;;12.83;7.63;;;;;;;10.03;100.00;95492.13;5018551;28;20233;-70
2023/05/05 02:01:40;;;;;;;16.03;7.87;;;;;;;10.20;100.00;95490.16;5015646;28;20773;-70
2023/05/05 02:04:08;;;;;;;14.07;7.60;;;;;;;10.29;100.00;95489.03;5001168;28;20290;-70
2023/05/05 02:06:34;;;;;;;13.97;7.97;;;;;;;10.30;100.00;95494.06;4994047;28;20734;-70
2023/05/05 02:08:59;;;;;;;12.47;7.90;;;;;;;10.26;100.00;95484.16;4998762;28;20235;-69
2023/05/05 02:11:25;;;;;;;13.97;7.70;;;;;;;10.45;100.00;95494.03;4992950;28;20230;-71
2023/05/05 02:13:51;;;;;;;13.53;7.27;;;;;;;10.57;100.00;95489.94;5025466;28;20301;-71
2023/05/05 02:16:16;;;;;;;14.43;7.30;;;;;;;10.60;100.00;95487.75;4986395;28;20230;-70
2023/05/05 02:18:41;;;;;;;14.23;7.43;;;;;;;10.71;100.00;95489.09;5004041;28;20242;-71
2023/05/05 02:21:07;;;;;;;12.73;6.87;;;;;;;10.75;100.00;95491.16;5001885;28;20234;-70
2023/05/05 02:23:33;;;;;;;10.73;6.87;;;;;;;10.82;99.85;95486.78;5006787;28;20647;-69
2023/05/05 02:26:18;;;;;;;12.80;6.70;;;;;;;10.79;100.00;95496.84;5014899;28;20245;-70
2023/05/05 02:28:52;;;;;;;9.97;6.33;;;;;;;10.81;99.42;95489.59;4999300;28;20246;-70
2023/05/05 02:31:20;;;;;;;11.33;6.40;;;;;;;10.88;99.09;95494.91;5013642;28;20766;-70
2023/05/05 02:33:46;;;;;;;9.77;6.10;;;;;;;10.86;98.47;95495.09;5003814;28;20222;-69
2023/05/05 02:36:21;;;;;;;10.97;5.80;;;;;;;10.86;97.82;95496.91;4999811;28;20246;-70
2023/05/05 02:38:49;;;;;;;10.37;5.77;;;;;;;10.90;98.22;95490.28;5007801;28;20234;-70
2023/05/05 02:41:16;;;;;;;10.27;6.37;;;;;;;10.88;98.27;95494.91;4987438;28;20238;-70
2023/05/05 02:43:42;;;;;;;11.37;5.93;;;;;;;10.86;98.13;95494.28;5002846;28;20241;-69
2023/05/05 02:46:08;;;;;;;9.83;6.07;;;;;;;10.86;98.18;95489.84;4988088;28;20256;-71
2023/05/05 02:48:33;;;;;;;11.13;6.10;;;;;;;10.88;98.49;95492.28;5012990;28;20661;-70
2023/05/05 02:50:59;;;;;;;10.30;5.80;;;;;;;10.84;97.65;95490.03;4986733;28;20226;-70
2023/05/05 02:53:25;;;;;;;10.30;5.93;;;;;;;10.89;97.77;95488.69;4999481;28;20817;-70
2023/05/05 02:55:52;;;;;;;8.40;5.70;;;;;;;10.91;97.48;95489.28;5013816;28;20624;-70
2023/05/05 02:58:23;;;;;;;9.33;6.20;;;;;;;10.94;97.32;95494.94;5022857;28;20251;-69
2023/05/05 03:00:58;;;;;;;11.27;5.73;;;;;;;10.94;97.40;95486.31;5005299;28;20238;-70
2023/05/05 03:03:33;;;;;;;8.73;5.87;;;;;;;10.89;97.96;95493.91;5014247;28;20229;-70
2023/05/05 03:06:06;;;;;;;10.30;6.00;;;;;;;10.90;97.66;95496.34;5007770;28;20233;-70
2023/05/05 03:08:47;;;;;;;11.93;5.97;;;;;;;10.92;97.43;95498.75;4987794;28;20256;-71
2023/05/05 03:11:22;;;;;;;9.50;6.10;;;;;;;10.93;97.26;95492.53;5018773;28;20233;-70
2023/05/05 03:13:50;;;;;;;11.27;5.87;;;;;;;10.93;96.96;95487.28;4993611;28;20345;-70
2023/05/05 03:16:16;;;;;;;11.03;6.13;;;;;;;10.96;97.19;95486.94;5015395;28;20643;-70
2023/05/05 03:18:42;;;;;;;9.40;5.90;;;;;;;10.96;97.09;95490.38;4997563;28;20310;-69
2023/05/05 03:21:07;;;;;;;11.13;6.00;;;;;;;10.90;96.41;95491.09;4998405;28;20238;-69
2023/05/05 03:23:33;;;;;;;9.80;5.50;;;;;;;10.89;96.79;95489.47;5006445;28;20223;-69
2023/05/05 03:25:59;;;;;;;9.10;6.00;;;;;;;10.90;96.45;95498.13;4995617;28;20230;-71
2023/05/05 03:28:24;;;;;;;12.67;5.93;;;;;;;10.86;96.49;95492.47;5016332;28;20231;-70
2023/05/05 03:30:50;;;;;;;8.40;5.70;;;;;;;10.90;95.43;95491.09;5002722;28;20235;-71
2023/05/05 03:33:15;;;;;;;9.57;5.70;;;;;;;10.94;95.39;95491.53;5015178;28;20257;-71
2023/05/05 03:35:41;;;;;;;9.13;5.50;;;;;;;10.91;95.16;95491.91;4980658;28;20226;-71
2023/05/05 03:38:06;;;;;;;8.37;5.57;;;;;;;10.93;95.05;95492.53;5002317;28;20227;-72
2023/05/05 03:40:32;;;;;;;11.63;5.53;;;;;;;11.00;95.77;95482.91;5023459;28;20241;-71
2023/05/05 03:42:57;;;;;;;10.23;5.73;;;;;;;10.98;95.24;95482.31;5002204;28;20222;-69
2023/05/05 03:45:22;;;;;;;10.17;5.43;;;;;;;10.94;95.88;95483.69;5006231;28;20239;-70
2023/05/05 03:47:48;;;;;;;7.97;5.47;;;;;;;10.97;95.25;95486.72;5012489;28;20230;-70
2023/05/05 03:50:13;;;;;;;10.33;5.60;;;;;;;10.97;95.38;95491.97;5023811;28;20227;-69
2023/05/05 03:52:39;;;;;;;9.17;5.60;;;;;;;10.95;95.50;95493.16;5014775;28;20229;-70
2023/05/05 03:55:05;;;;;;;8.80;5.50;;;;;;;10.98;95.50;95493.59;5013510;28;20289;-71
2023/05/05 03:57:32;;;;;;;9.50;5.73;;;;;;;10.99;95.35;95492.59;5003119;28;20616;-72
2023/05/05 03:59:58;;;;;;;11.27;6.20;;;;;;;10.98;95.79;95498.84;4996599;28;20250;-70
2023/05/05 04:02:23;;;;;;;12.47;6.17;;;;;;;11.00;96.04;95490.78;5001685;28;20242;-71
2023/05/05 04:04:49;;;;;;;13.13;7.03;;;;;;;11.00;95.85;95501.25;5014849;28;20250;-69
2023/05/05 04:07:14;;;;;;;11.43;7.07;;;;;;;11.03;96.30;95503.50;4997156;28;20241;-69
2023/05/05 04:09:43;;;;;;;11.93;6.63;;;;;;;10.92;96.63;95507.44;4997061;28;20230;-69
2023/05/05 04:12:09;;;;;;;11.43;7.47;;;;;;;10.88;97.51;95510.59;5022699;28;20233;-70
2023/05/05 04:14:35;;;;;;;14.33;7.87;;;;;;;10.96;96.54;95513.94;5001214;28;20774;-70
2023/05/05 04:17:00;;;;;;;15.80;8.23;;;;;;;11.03;97.23;95514.00;5016241;28;20230;-70
2023/05/05 04:19:26;;;;;;;14.20;7.63;;;;;;;11.04;96.95;95516.41;5013023;28;20288;-74
2023/05/05 04:21:52;;;;;;;10.30;7.40;;;;;;;11.02;97.80;95509.72;4988924;28;20303;-70
2023/05/05 04:24:21;;;;;;;13.03;7.93;;;;;;;11.15;96.49;95522.97;5000939;28;20249;-70
2023/05/05 04:26:47;;;;;;;14.37;7.40;;;;;;;11.18;96.50;95518.16;5010346;28;20229;-70
2023/05/05 04:29:12;;;;;;;14.40;7.67;;;;;;;11.19;96.18;95518.97;5021760;28;20583;-71
2023/05/05 04:31:38;;;;;;;14.37;7.77;;;;;;;11.07;97.38;95528.31;5012858;28;20657;-70
2023/05/05 04:34:03;;;;;;;12.90;7.33;;;;;;;11.04;96.63;95524.25;5016175;28;20677;-71
2023/05/05 04:36:29;;;;;;;12.03;7.83;;;;;;;11.10;96.51;95530.56;4999176;28;20748;-70
2023/05/05 04:38:54;;;;;;;14.43;8.20;;;;;;;11.17;96.08;95531.44;5014048;28;20666;-70
2023/05/05 04:41:20;;;;;;;13.43;7.47;;;;;;;11.25;95.15;95521.63;5012877;28;20935;-71
2023/05/05 04:43:45;;;;;;;12.87;7.60;;;;;;;11.25;94.88;95534.72;5001369;28;20242;-70
2023/05/05 04:46:11;;;;;;;14.43;7.90;;;;;;;11.18;95.47;95525.19;4991944;28;20231;-71
2023/05/05 04:48:37;;;;;;;13.47;8.10;;;;;;;11.19;95.56;95535.50;5010277;28;20439;-71
2023/05/05 04:51:04;;;;;;;14.07;7.90;;;;;;;11.28;95.32;95523.06;5009310;28;20495;-71
2023/05/05 04:53:30;;;;;;;13.70;7.80;;;;;;;11.36;94.56;95528.19;5012302;28;20229;-71
2023/05/05 04:55:55;;;;;;;13.37;7.30;;;;;;;11.40;94.13;95521.56;5018062;28;20233;-71
2023/05/05 04:58:21;;;;;;;13.67;7.43;;;;;;;11.35;93.82;95527.38;5023349;28;20257;-71
2023/05/05 05:00:46;;;;;;;14.33;7.33;;;;;;;11.47;93.46;95527.66;4982445;28;20235;-71
2023/05/05 05:03:11;;;;;;;12.07;7.27;;;;;;;11.62;94.00;95528.38;4999492;28;20242;-70
2023/05/05 05:05:37;;;;;;;14.00;7.60;;;;;;;11.56;92.39;95530.97;4997355;28;20304;-71
2023/05/05 05:08:03;;;;;;;16.53;7.63;;;;;;;11.63;92.17;95532.63;5023737;28;20234;-71
2023/05/05 05:10:28;;;;;;;12.40;7.80;;;;;;;11.74;92.24;95534.75;5017295;28;20624;-70
2023/05/05 05:12:54;;;;;;;15.53;8.23;;;;;;;11.79;92.33;95544.69;5017262;28;20264;-71
2023/05/05 05:15:19;;;;;;;13.60;8.03;;;;;;;11.89;92.80;95540.69;5014408;28;20738;-71
2023/05/05 05:17:44;;;;;;;11.73;7.37;;;;;;;11.92;92.41;95540.31;4996075;28;20377;-71
2023/05/05 05:20:10;;;;;;;16.80;7.60;;;;;;;11.97;91.22;95547.59;5001969;28;20239;-72
2023/05/05 05:22:37;;;;;;;13.10;7.20;;;;;;;11.95;91.40;95539.94;5004579;28;20238;-70
2023/05/05 05:25:03;;;;;;;12.93;7.53;;;;;;;11.97;92.55;95539.75;5011446;28;20266;-70
2023/05/05 05:27:28;;;;;;;14.87;7.87;;;;;;;12.04;92.01;95537.97;5008657;28;20261;-71
2023/05/05 05:29:54;;;;;;;12.67;7.63;;;;;;;12.03;91.32;95545.06;4999198;28;20233;-70
2023/05/05 05:32:20;;;;;;;12.80;7.80;;;;;;;12.09;91.27;95549.50;5025157;28;20234;-71
2023/05/05 05:34:45;;;;;;;15.50;7.37;;;;;;;12.12;91.77;95549.13;5017279;28;22923;-71
2023/05/05 05:37:11;;;;;;;14.87;7.47;;;;;;;12.15;91.32;95546.13;5015596;28;20230;-69
2023/05/05 05:39:36;;;;;;;13.47;7.40;;;;;;;12.33;90.40;95544.78;5007342;28;20269;-70
2023/05/05 05:42:02;;;;;;;11.00;6.67;;;;;;;12.44;88.99;95547.66;5001320;28;20226;-69
2023/05/05 05:44:28;;;;;;;15.50;7.00;;;;;;;12.51;88.17;95548.53;5000500;28;20304;-70
2023/05/05 05:46:53;;;;;;;14.40;7.13;;;;;;;12.53;88.34;95541.25;5000998;28;20377;-70
2023/05/05 05:49:19;;;;;;;10.63;6.67;;;;;;;12.58;87.04;95538.03;5008539;28;20235;-69
2023/05/05 05:51:44;;;;;;;11.50;6.90;;;;;;;12.58;87.69;95528.34;4998627;28;20269;-70
2023/05/05 05:54:09;;;;;;;11.97;6.87;;;;;;;12.73;87.39;95544.75;5023671;28;20589;-70
2023/05/05 05:56:35;;;;;;;14.13;6.67;;;;;;;12.83;86.38;95547.00;5014445;28;20235;-70
2023/05/05 05:59:03;;;;;;;11.20;6.57;;;;;;;12.72;87.30;95545.78;5000403;28;20636;-71
2023/05/05 06:01:28;;;;;;;8.70;5.80;;;;;;;12.76;85.66;95552.25;5015107;28;20238;-71
2023/05/05 06:03:53;;;;;;;17.50;6.73;;;;;;;12.74;86.17;95545.56;5016890;28;20566;-71
2023/05/05 06:06:19;;;;;;;11.63;6.53;;;;;;;12.83;86.09;95550.44;4986911;28;20316;-70
2023/05/05 06:08:45;;;;;;;17.83;7.60;;;;;;;12.80;87.43;95548.19;5008084;28;20250;-71
2023/05/05 06:11:10;;;;;;;18.13;7.97;;;;;;;12.92;87.02;95556.31;5014850;28;20675;-71
2023/05/05 06:13:36;;;;;;;20.83;7.97;;;;;;;12.93;86.45;95555.31;5024570;28;20230;-71
2023/05/05 06:16:01;;;;;;;14.40;7.57;;;;;;;12.98;86.55;95554.72;5014213;28;20735;-70
2023/05/05 06:18:27;;;;;;;14.80;7.43;;;;;;;12.95;85.83;95550.69;4983201;28;20237;-71
2023/05/05 06:20:52;;;;;;;14.23;6.70;;;;;;;12.90;84.97;95553.09;4985797;28;20629;-71
2023/05/05 06:23:18;;;;;;;14.10;6.50;;;;;;;12.93;84.65;95552.69;5020369;28;20238;-71
2023/05/05 06:25:43;;;;;;;11.30;6.00;;;;;;;13.09;86.42;95554.97;5006651;28;20270;-70
2023/05/05 06:28:09;;;;;;;12.97;6.20;;;;;;;13.06;85.03;95562.47;5026396;28;20237;-70
2023/05/05 06:30:34;;;;;;;9.40;6.00;;;;;;;13.15;84.86;95561.28;5000162;28;20230;-70
2023/05/05 06:33:00;;;;;;;30.13;12.90;;;;;;;13.17;84.63;95562.69;5024611;28;20231;-71
2023/05/05 06:35:25;;;;;;;15.70;7.40;;;;;;;13.16;84.65;95565.53;5001688;28;20245;-70
2023/05/05 06:37:51;;;;;;;16.73;7.50;;;;;;;13.16;85.26;95562.91;5000179;28;20238;-71
2023/05/05 06:40:16;;;;;;;14.80;6.80;;;;;;;13.19;84.58;95563.28;5019772;28;20235;-71
2023/05/05 06:42:42;;;;;;;10.47;6.60;;;;;;;13.32;85.04;95568.59;4982435;28;20238;-71
2023/05/05 06:45:07;;;;;;;11.00;6.37;;;;;;;13.43;84.23;95562.72;5015737;28;20624;-72
2023/05/05 06:47:33;;;;;;;11.20;5.90;;;;;;;13.48;84.31;95559.50;4995079;28;20769;-72
2023/05/05 06:49:58;;;;;;;12.17;6.00;;;;;;;13.57;84.63;95560.91;5013123;28;20234;-72
2023/05/05 06:52:24;;;;;;;8.73;6.13;;;;;;;13.54;81.98;95560.50;5012259;28;20302;-70
2023/05/05 06:54:50;;;;;;;11.13;5.80;;;;;;;13.47;83.70;95552.59;5004750;28;20847;-70
2023/05/05 06:57:15;;;;;;;10.60;5.70;;;;;;;13.64;83.03;95556.47;4991282;28;20729;-71
2023/05/05 06:59:41;;;;;;;11.47;6.03;;;;;;;13.73;84.13;95549.97;5003785;28;21087;-71
2023/05/05 07:02:06;;;;;;;11.67;5.33;;;;;;;13.68;82.24;95552.44;4987203;28;20230;-71
2023/05/05 07:04:32;;;;;;;9.43;5.20;;;;;;;13.73;82.63;95554.44;5005877;28;20695;-71
2023/05/05 07:06:57;;;;;;;10.43;5.20;;;;;;;13.80;83.23;95555.25;5025945;28;20613;-70
2023/05/05 07:09:23;;;;;;;8.67;4.67;;;;;;;13.71;82.51;95546.75;5006819;28;20986;-71
2023/05/05 07:11:48;;;;;;;8.97;4.50;;;;;;;13.90;82.70;95547.75;5007796;28;20293;-71
2023/05/05 07:14:14;;;;;;;8.47;4.40;;;;;;;13.46;81.36;95543.09;5007847;28;20339;-71
2023/05/05 07:16:40;;;;;;;7.80;4.20;;;;;;;13.66;81.64;95549.16;4999891;28;20321;-70
2023/05/05 07:19:05;;;;;;;6.10;3.80;;;;;;;13.87;80.39;95550.78;5019127;28;20226;-70
2023/05/05 07:21:33;;;;;;;6.30;3.93;;;;;;;13.89;80.08;95554.03;5025418;28;20777;-70
2023/05/05 07:23:59;;;;;;;3.37;2.70;;;;;;;13.99;81.13;95549.97;5015516;28;20246;-70
2023/05/05 07:26:25;;;;;;;3.20;2.53;;;;;;;14.11;79.46;95539.63;5011864;28;20239;-70
2023/05/05 07:28:51;;;;;;;4.03;2.80;;;;;;;14.12;79.87;95530.69;5024040;28;20249;-71
2023/05/05 07:31:18;;;;;;;5.90;3.20;;;;;;;14.11;79.56;95534.34;5013580;28;20241;-70
2023/05/05 07:33:44;;;;;;;4.17;3.03;;;;;;;14.63;78.08;95538.69;5015220;28;20720;-72
2023/05/05 07:36:09;;;;;;;5.37;3.07;;;;;;;14.76;76.27;95547.31;4998662;28;20239;-70
2023/05/05 07:38:35;;;;;;;4.07;3.00;;;;;;;14.99;78.20;95551.28;5023536;28;20339;-71
2023/05/05 07:41:00;;;;;;;7.60;3.10;;;;;;;15.21;77.99;95556.00;5010958;28;20231;-70
2023/05/05 07:43:26;;;;;;;5.20;3.13;;;;;;;15.06;77.36;95555.50;5012404;28;20277;-73
2023/05/05 07:45:51;;;;;;;3.93;2.63;;;;;;;14.90;76.65;95558.63;5006432;28;20299;-70
2023/05/05 07:48:17;;;;;;;3.70;2.60;;;;;;;15.36;75.29;95551.25;5007616;28;20300;-71
2023/05/05 07:50:42;;;;;;;3.57;2.80;;;;;;;15.22;74.37;95551.53;5011640;28;20230;-69
2023/05/05 07:53:08;;;;;;;4.23;2.87;;;;;;;15.37;75.04;95544.16;5012018;28;20239;-69
2023/05/05 07:55:33;;;;;;;4.33;2.57;;;;;;;15.71;74.60;95548.19;5006204;28;20237;-69
2023/05/05 07:57:59;;;;;;;4.93;3.10;;;;;;;16.07;72.52;95550.91;5024517;28;20233;-70
2023/05/05 08:00:24;;;;;;;6.40;2.97;;;;;;;16.04;73.33;95548.72;4982627;28;20241;-70
2023/05/05 08:02:50;;;;;;;5.60;2.83;;;;;;;16.23;71.72;95557.47;5016213;28;20245;-70
2023/05/05 08:05:15;;;;;;;5.27;2.73;;;;;;;16.31;70.66;95547.41;5016415;28;20745;-70
2023/05/05 08:07:41;;;;;;;4.63;2.80;;;;;;;16.12;70.64;95543.16;5014487;28;20275;-70
2023/05/05 08:10:10;;;;;;;6.97;3.00;;;;;;;16.33;71.52;95555.13;4996196;28;20604;-72
2023/05/05 08:12:36;;;;;;;5.23;2.87;;;;;;;16.49;73.04;95550.06;4997620;28;20299;-71
2023/05/05 08:15:01;;;;;;;6.10;3.17;;;;;;;16.55;70.65;95553.72;5011908;28;20234;-70
2023/05/05 08:17:27;;;;;;;6.07;2.77;;;;;;;16.68;70.13;95546.41;5024166;28;20234;-72
2023/05/05 08:19:52;;;;;;;8.33;2.90;;;;;;;16.70;67.89;95549.66;5026404;28;20240;-73
2023/05/05 08:22:19;;;;;;;5.17;2.93;;;;;;;16.70;69.33;95541.72;4999568;28;20256;-71
2023/05/05 08:24:45;;;;;;;3.73;2.83;;;;;;;16.78;69.90;95544.06;4999792;28;20235;-70
2023/05/05 08:27:10;;;;;;;4.10;2.80;;;;;;;16.81;69.15;95532.25;5008567;28;20258;-72
2023/05/05 08:29:35;;;;;;;3.60;2.63;;;;;;;17.09;69.86;95529.81;5000822;28;20660;-69
2023/05/05 08:32:01;;;;;;;3.77;2.87;;;;;;;17.23;69.81;95533.09;5014956;28;20733;-71
2023/05/05 08:34:26;;;;;;;5.50;3.20;;;;;;;17.18;68.73;95523.19;4984180;28;20234;-72
2023/05/05 08:36:52;;;;;;;6.23;3.27;;;;;;;17.10;69.72;95525.34;4999738;28;20939;-73
2023/05/05 08:39:17;;;;;;;6.43;3.30;;;;;;;17.25;70.58;95523.06;5017412;28;20230;-71
2023/05/05 08:41:43;;;;;;;6.27;3.20;;;;;;;17.14;69.78;95531.78;5017854;28;20226;-71
2023/05/05 08:44:09;;;;;;;5.37;2.93;;;;;;;16.65;69.69;95524.91;4987882;28;20246;-71
2023/05/05 08:46:35;;;;;;;5.13;3.00;;;;;;;16.75;68.86;95523.34;4999103;28;20290;-70
2023/05/05 08:49:02;;;;;;;4.20;2.90;;;;;;;17.34;66.96;95527.81;5013870;28;20230;-70
2023/05/05 08:51:30;;;;;;;5.23;2.93;;;;;;;17.50;68.92;95521.09;5007297;28;20248;-72
2023/05/05 08:53:59;;;;;;;7.10;3.20;;;;;;;17.41;68.63;95512.66;5026423;28;20245;-71
2023/05/05 08:56:28;;;;;;;9.43;3.43;;;;;;;17.80;68.32;95519.19;4993361;28;20238;-71
2023/05/05 08:58:54;;;;;;;5.73;3.00;;;;;;;17.75;68.57;95527.00;5019423;28;20314;-70
2023/05/05 09:01:20;;;;;;;5.07;3.00;;;;;;;17.60;67.87;95523.22;4987439;28;20241;-71
2023/05/05 09:03:45;;;;;;;3.63;2.80;;;;;;;16.99;69.15;95518.97;5015373;28;20245;-71
2023/05/05 09:06:11;;;;;;;4.37;2.80;;;;;;;16.71;72.42;95519.56;4984986;28;20230;-72
2023/05/05 09:08:37;;;;;;;3.63;2.67;;;;;;;16.70;70.72;95514.47;5002685;28;20722;-72
2023/05/05 09:11:02;;;;;;;4.67;2.50;;;;;;;16.79;70.26;95515.78;5005575;28;20242;-72
2023/05/05 09:13:28;;;;;;;4.27;2.63;;;;;;;17.76;67.71;95512.75;5017469;28;20630;-72
2023/05/05 09:15:54;;;;;;;5.77;2.70;;;;;;;18.46;65.78;95510.88;5004565;28;20234;-72
2023/05/05 09:18:19;;;;;;;4.33;2.60;;;;;;;17.67;65.30;95518.59;5002059;28;20234;-72
2023/05/05 09:20:45;;;;;;;4.60;2.63;;;;;;;17.11;66.06;95514.53;5014661;28;20239;-73
2023/05/05 09:23:12;;;;;;;3.20;2.60;;;;;;;17.63;66.78;95509.50;5011999;28;20233;-72
2023/05/05 09:25:38;;;;;;;4.17;2.73;;;;;;;18.06;66.84;95510.78;5009997;28;20239;-73
2023/05/05 09:28:11;;;;;;;3.63;2.73;;;;;;;18.45;64.60;95506.59;5015882;28;20254;-72
2023/05/05 09:30:37;;;;;;;4.43;2.77;;;;;;;18.60;63.67;95506.97;5018665;28;20317;-72
2023/05/05 09:33:03;;;;;;;3.47;2.60;;;;;;;17.89;66.00;95509.88;5004033;28;20325;-72
2023/05/05 09:35:28;;;;;;;3.50;2.73;;;;;;;17.24;68.40;95498.44;5006917;28;20258;-71
2023/05/05 09:37:54;;;;;;;5.00;2.80;;;;;;;17.65;67.31;95505.59;5007239;28;20631;-72
2023/05/05 09:40:20;;;;;;;4.27;2.77;;;;;;;17.16;67.65;95504.09;5007743;28;20280;-71
2023/05/05 09:42:46;;;;;;;5.00;2.90;;;;;;;18.12;66.47;95498.47;5016208;28;20230;-70
2023/05/05 09:45:17;;;;;;;4.03;3.00;;;;;;;17.76;66.67;95511.94;5004873;28;20230;-71
2023/05/05 09:47:46;;;;;;;3.53;2.67;;;;;;;17.18;66.73;95504.66;5017769;28;20234;-71
2023/05/05 09:50:17;;;;;;;4.13;2.70;;;;;;;17.06;67.04;95503.81;5018631;28;20227;-70
2023/05/05 09:52:52;;;;;;;3.87;2.40;;;;;;;17.27;67.36;95502.50;5004935;28;20229;-72
2023/05/05 09:55:18;;;;;;;4.00;2.57;;;;;;;17.68;63.91;95502.47;5006507;28;20970;-71
2023/05/05 09:57:46;;;;;;;4.13;2.70;;;;;;;17.33;65.41;95496.31;5017942;28;20258;-71
2023/05/05 10:00:12;;;;;;;3.50;2.80;;;;;;;17.62;65.15;95500.75;5001847;28;20256;-71
2023/05/05 10:02:38;;;;;;;5.13;2.70;;;;;;;17.27;66.25;95498.00;5001970;28;20284;-72
2023/05/05 10:05:08;;;;;;;5.40;3.20;;;;;;;17.52;67.07;95494.41;5007575;28;20227;-70
2023/05/05 10:07:34;;;;;;;4.30;3.20;;;;;;;17.87;66.68;95503.19;5025258;28;20234;-70
2023/05/05 10:10:00;;;;;;;3.77;2.80;;;;;;;18.06;65.10;95496.72;5002713;28;20248;-70
2023/05/05 10:12:25;;;;;;;4.57;3.10;;;;;;;18.57;63.16;95498.66;5009685;28;20623;-71
2023/05/05 10:14:54;;;;;;;4.07;3.20;;;;;;;17.92;63.72;95492.72;5006895;28;20235;-71
2023/05/05 10:17:21;;;;;;;7.07;3.40;;;;;;;17.88;64.69;95484.44;5007402;28;20676;-70
2023/05/05 10:19:46;;;;;;;4.40;2.93;;;;;;;17.95;64.59;95487.78;5019678;28;20234;-71
2023/05/05 10:22:12;;;;;;;4.10;3.10;;;;;;;18.40;63.66;95487.94;5008432;28;20239;-72
2023/05/05 10:25:08;;;;;;;4.77;3.10;;;;;;;18.71;64.90;95482.25;5003783;28;20252;-72
2023/05/05 10:27:46;;;;;;;4.70;3.30;;;;;;;18.55;63.22;95488.28;5025411;28;20887;-72
2023/05/05 10:30:16;;;;;;;4.63;3.20;;;;;;;17.68;64.27;95486.59;4986768;28;20642;-71
2023/05/05 10:32:49;;;;;;;4.87;3.00;;;;;;;17.39;65.27;95477.66;5018599;28;20242;-71
2023/05/05 10:35:20;;;;;;;9.03;3.27;;;;;;;17.85;65.96;95481.41;5008953;28;20320;-71
2023/05/05 10:37:45;;;;;;;4.37;3.10;;;;;;;17.55;65.51;95483.38;4990362;28;20260;-71
2023/05/05 10:40:11;;;;;;;3.87;3.00;;;;;;;17.50;67.46;95481.38;5016737;28;20235;-69
2023/05/05 10:42:38;;;;;;;4.43;3.20;;;;;;;17.64;65.34;95485.47;5026161;28;20324;-71
2023/05/05 10:45:04;;;;;;;4.03;2.80;;;;;;;18.27;64.03;95480.22;4984735;28;20312;-69
2023/05/05 10:47:30;;;;;;;3.67;2.73;;;;;;;18.91;65.68;95481.00;5000448;28;20261;-71
2023/05/05 10:50:01;;;;;;;3.67;2.90;;;;;;;18.97;63.83;95483.50;5003532;28;20230;-69
2023/05/05 10:52:57;;;;;;;3.00;2.57;;;;;;;17.95;62.09;95492.25;5017792;28;20690;-72
2023/05/05 10:55:47;;;;;;;4.07;2.77;;;;;;;18.39;61.84;95483.66;5016189;28;20300;-71
2023/05/05 10:58:35;;;;;;;5.27;2.80;;;;;;;18.08;64.17;95476.09;5014428;28;20260;-71
2023/05/05 11:01:01;;;;;;;3.87;2.77;;;;;;;17.78;63.46;95481.53;5008355;28;20235;-71
2023/05/05 11:03:26;;;;;;;4.73;2.50;;;;;;;17.67;65.43;95484.19;5002049;28;20241;-72
2023/05/05 11:06:04;;;;;;;3.57;2.80;;;;;;;17.20;65.68;95476.13;5016419;28;20231;-72
2023/05/05 11:08:41;;;;;;;4.20;2.80;;;;;;;17.42;65.71;95474.56;5014178;28;20304;-72
2023/05/05 11:11:06;;;;;;;4.43;2.60;;;;;;;17.41;66.74;95464.22;4989836;28;20726;-71
2023/05/05 11:13:32;;;;;;;3.97;2.77;;;;;;;17.53;68.63;95480.16;5002834;28;20250;-73
2023/05/05 11:15:58;;;;;;;3.17;2.53;;;;;;;17.40;66.22;95463.41;4991586;28;20314;-71
2023/05/05 11:18:32;;;;;;;5.83;2.40;;;;;;;17.61;66.60;95463.91;5017715;28;20230;-71
2023/05/05 11:20:58;;;;;;;4.37;2.40;;;;;;;17.72;65.33;95463.13;5026236;28;20241;-72
2023/05/05 11:23:24;;;;;;;3.67;2.43;;;;;;;17.77;63.38;95468.53;5015288;28;20244;-72
2023/05/05 11:25:50;;;;;;;4.07;2.27;;;;;;;17.93;63.00;95463.34;4998131;28;20234;-72
2023/05/05 11:28:17;;;;;;;2.70;2.20;;;;;;;18.09;61.54;95451.22;5014411;28;20238;-72